Time;durP1;ratioP1;P1;durP2;ratioP2;P2;SDS_P1;SDS_P2;PMS_P1;PMS_P2;Temp;Humidity;BMP_temperature;BMP_pressure;BME280_temperature;BME280_humidity;BME280_pressure;Samples;Min_cycle;Max_cycle;Signal;HPM_P1;HPM_P2
2022/12/02 00:00:56;;;;;;;55.93;30.80;;;3.30;99.90;;;;;;5073946;28;21011;-77
2022/12/02 00:03:25;;;;;;;60.33;32.87;;;3.20;99.90;;;;;;5075016;28;20576;-78
2022/12/02 00:05:55;;;;;;;55.30;32.43;;;3.30;99.90;;;;;;5074715;28;20941;-77
2022/12/02 00:08:29;;;;;;;57.97;31.97;;;3.30;99.90;;;;;;5075034;28;20945;-77
2022/12/02 00:11:00;;;;;;;56.73;31.47;;;3.30;99.90;;;;;;5073876;28;20440;-78
2022/12/02 00:13:31;;;;;;;55.47;32.93;;;3.30;99.90;;;;;;5074965;28;20512;-77
2022/12/02 00:16:02;;;;;;;58.97;32.93;;;3.30;99.90;;;;;;5073660;28;20449;-77
2022/12/02 00:18:31;;;;;;;53.30;32.63;;;3.30;99.90;;;;;;5074950;28;20516;-77
2022/12/02 00:20:59;;;;;;;59.87;30.80;;;3.30;99.90;;;;;;5075364;28;20444;-77
2022/12/02 00:23:28;;;;;;;54.00;31.33;;;3.30;99.90;;;;;;5075347;28;20525;-77
2022/12/02 00:25:56;;;;;;;56.33;33.57;;;3.20;99.90;;;;;;5073413;28;20965;-77
2022/12/02 00:28:24;;;;;;;48.30;31.23;;;3.30;99.90;;;;;;5073415;28;20476;-77
2022/12/02 00:30:53;;;;;;;62.47;34.70;;;3.30;99.90;;;;;;5074872;28;20452;-77
2022/12/02 00:33:21;;;;;;;58.73;33.30;;;3.30;99.90;;;;;;5074742;28;20501;-77
2022/12/02 00:35:49;;;;;;;50.53;30.87;;;3.30;99.90;;;;;;5073327;28;20445;-77
2022/12/02 00:38:17;;;;;;;50.80;32.00;;;3.30;99.90;;;;;;5074503;28;20437;-77
2022/12/02 00:40:47;;;;;;;53.83;33.03;;;3.30;99.90;;;;;;5073169;28;20479;-77
2022/12/02 00:48:46;;;;;;;59.17;33.40;;;3.30;99.90;;;;;;5073000;28;20934;-77
2022/12/02 00:51:14;;;;;;;56.57;33.93;;;3.20;99.90;;;;;;5074212;28;20490;-78
2022/12/02 00:53:42;;;;;;;53.97;32.33;;;3.20;99.90;;;;;;5072848;28;20832;-77
2022/12/02 00:56:11;;;;;;;60.80;34.00;;;3.30;99.90;;;;;;5073221;28;20446;-77
2022/12/02 00:58:40;;;;;;;64.83;34.43;;;3.20;99.90;;;;;;5072808;28;20480;-77
2022/12/02 01:01:08;;;;;;;60.03;34.37;;;3.20;99.90;;;;;;5073946;28;20437;-77
2022/12/02 01:03:37;;;;;;;63.47;35.10;;;3.20;99.90;;;;;;5072773;28;20854;-77
2022/12/02 01:06:12;;;;;;;74.53;38.63;;;3.20;99.90;;;;;;5072643;28;20440;-78
2022/12/02 01:08:41;;;;;;;64.37;37.20;;;3.20;99.90;;;;;;5072623;28;20474;-78
2022/12/02 01:11:10;;;;;;;63.07;35.30;;;3.20;99.90;;;;;;5072787;28;20934;-78
2022/12/02 01:13:38;;;;;;;55.23;31.83;;;3.20;99.90;;;;;;5072461;28;20470;-78
2022/12/02 01:16:07;;;;;;;69.40;36.00;;;3.20;99.90;;;;;;5072363;28;20489;-78
2022/12/02 01:18:36;;;;;;;66.77;34.27;;;3.20;99.90;;;;;;5072470;28;20468;-78
2022/12/02 01:21:04;;;;;;;62.50;33.73;;;3.20;99.90;;;;;;5075715;28;20529;-78
2022/12/02 01:23:32;;;;;;;69.73;35.50;;;3.20;99.90;;;;;;5074681;28;20550;-78
2022/12/02 01:26:00;;;;;;;63.53;36.77;;;3.20;99.90;;;;;;5074962;28;20439;-78
2022/12/02 01:28:29;;;;;;;64.00;36.80;;;3.20;99.90;;;;;;5072906;28;20474;-78
2022/12/02 01:30:57;;;;;;;67.63;34.90;;;3.20;99.90;;;;;;5072341;28;20457;-78
2022/12/02 01:33:25;;;;;;;60.70;33.73;;;3.20;99.90;;;;;;5071622;28;21053;-77
2022/12/02 01:35:53;;;;;;;63.67;35.10;;;3.20;99.90;;;;;;5072310;28;20477;-79
2022/12/02 01:38:21;;;;;;;68.50;36.70;;;3.20;99.90;;;;;;5074326;28;20793;-78
2022/12/02 01:40:51;;;;;;;69.70;36.23;;;3.20;99.90;;;;;;5072250;28;20449;-78
2022/12/02 01:43:20;;;;;;;64.03;36.33;;;3.20;99.90;;;;;;5072123;28;20480;-77
2022/12/02 01:45:50;;;;;;;67.77;35.00;;;3.20;99.90;;;;;;5074132;28;20440;-77
2022/12/02 01:48:19;;;;;;;65.20;32.80;;;3.20;99.90;;;;;;5073446;28;20994;-78
2022/12/02 01:50:47;;;;;;;63.00;33.60;;;3.20;99.90;;;;;;5072191;28;20496;-78
2022/12/02 01:53:16;;;;;;;60.67;32.00;;;3.20;99.90;;;;;;5073424;28;20443;-78
2022/12/02 01:55:44;;;;;;;63.90;34.50;;;3.20;99.90;;;;;;5073637;28;20926;-77
2022/12/02 01:58:14;;;;;;;60.80;34.17;;;3.20;99.90;;;;;;5071987;28;20479;-77
2022/12/02 02:00:42;;;;;;;67.23;33.63;;;3.20;99.90;;;;;;5072056;28;20445;-78
2022/12/02 02:03:12;;;;;;;64.53;34.17;;;3.20;99.90;;;;;;5071926;28;20475;-78
2022/12/02 02:05:40;;;;;;;56.23;30.60;;;3.10;99.90;;;;;;5071853;28;20461;-78
2022/12/02 02:08:12;;;;;;;57.50;31.40;;;3.20;99.90;;;;;;5072570;28;20451;-78
2022/12/02 02:10:43;;;;;;;57.47;31.47;;;3.20;99.90;;;;;;5071978;28;21004;-78
2022/12/02 02:13:12;;;;;;;57.57;30.10;;;3.10;99.90;;;;;;5073226;28;20428;-78
2022/12/02 02:15:42;;;;;;;50.43;27.93;;;3.10;99.90;;;;;;5072122;28;20437;-77
2022/12/02 02:18:15;;;;;;;52.43;29.57;;;3.10;99.90;;;;;;5071856;28;20438;-77
2022/12/02 02:20:43;;;;;;;50.47;28.07;;;3.10;99.90;;;;;;5071919;28;20453;-78
2022/12/02 02:23:19;;;;;;;47.33;28.27;;;3.10;99.90;;;;;;5070945;28;20964;-77
2022/12/02 02:25:51;;;;;;;47.90;28.13;;;3.10;99.90;;;;;;5071694;28;20468;-77
2022/12/02 02:28:23;;;;;;;50.87;28.90;;;3.00;99.90;;;;;;5072564;28;20491;-77
2022/12/02 02:30:53;;;;;;;54.70;28.40;;;3.00;99.90;;;;;;5075692;28;20510;-77
2022/12/02 02:33:25;;;;;;;54.13;27.63;;;3.00;99.90;;;;;;5075945;28;20989;-77
2022/12/02 02:35:53;;;;;;;48.00;27.20;;;3.10;99.90;;;;;;5076169;28;20788;-77
2022/12/02 02:38:26;;;;;;;53.23;31.90;;;3.00;99.90;;;;;;5075561;28;20544;-78
2022/12/02 02:40:57;;;;;;;51.80;28.60;;;3.00;99.90;;;;;;5075548;28;20448;-78
2022/12/02 02:43:26;;;;;;;56.47;33.00;;;3.00;99.90;;;;;;5075429;28;20508;-77
2022/12/02 02:45:56;;;;;;;51.33;29.27;;;3.00;99.90;;;;;;5075630;28;20468;-77
2022/12/02 02:48:30;;;;;;;52.43;31.30;;;3.00;99.90;;;;;;5075532;28;20814;-77
2022/12/02 02:50:58;;;;;;;52.67;31.00;;;3.00;99.90;;;;;;5076839;28;20472;-78
2022/12/02 02:53:28;;;;;;;56.70;31.27;;;3.00;99.90;;;;;;5075379;28;20464;-77
2022/12/02 02:55:57;;;;;;;58.50;31.87;;;3.00;99.90;;;;;;5075159;28;20446;-78
2022/12/02 02:58:27;;;;;;;53.57;31.27;;;3.00;99.90;;;;;;5075179;28;20600;-77
2022/12/02 03:01:00;;;;;;;54.23;31.90;;;3.10;99.90;;;;;;5075197;28;20453;-77
2022/12/02 03:03:33;;;;;;;55.40;31.70;;;3.00;99.90;;;;;;5075041;28;20501;-77
2022/12/02 03:06:06;;;;;;;55.70;32.57;;;3.10;99.90;;;;;;5074981;28;20465;-77
2022/12/02 03:08:39;;;;;;;55.83;30.77;;;3.00;99.90;;;;;;5075236;28;20437;-77
2022/12/02 03:11:08;;;;;;;59.17;33.07;;;3.00;99.90;;;;;;5074927;28;20441;-78
2022/12/02 03:13:38;;;;;;;56.87;32.50;;;3.00;99.90;;;;;;5070715;28;20473;-77
2022/12/02 03:16:10;;;;;;;57.03;31.10;;;3.00;99.90;;;;;;5076678;28;20424;-77
2022/12/02 03:18:40;;;;;;;54.50;31.83;;;3.00;99.90;;;;;;5076272;28;20435;-77
2022/12/02 03:21:09;;;;;;;55.53;32.73;;;3.00;99.90;;;;;;5076568;28;20491;-77
2022/12/02 03:23:38;;;;;;;56.50;31.50;;;3.00;99.90;;;;;;5076204;28;21025;-77
2022/12/02 03:26:07;;;;;;;64.13;35.07;;;3.10;99.90;;;;;;5074673;28;20520;-78
2022/12/02 03:28:35;;;;;;;71.30;34.60;;;3.10;99.90;;;;;;5075842;28;20434;-77
2022/12/02 03:31:04;;;;;;;69.00;34.13;;;3.10;99.90;;;;;;5076051;28;20460;-77
2022/12/02 03:33:33;;;;;;;59.63;34.30;;;3.10;99.90;;;;;;5074440;28;20468;-78
2022/12/02 03:36:02;;;;;;;69.37;35.60;;;3.00;99.90;;;;;;5074449;28;20441;-77
2022/12/02 03:38:32;;;;;;;64.93;35.23;;;3.00;99.90;;;;;;5075859;28;20950;-77
2022/12/02 03:41:02;;;;;;;72.03;38.60;;;3.00;99.90;;;;;;5073056;28;20463;-77
2022/12/02 03:43:31;;;;;;;68.43;37.67;;;3.00;99.90;;;;;;5074838;28;20485;-77
2022/12/02 03:46:00;;;;;;;70.10;35.93;;;3.00;99.90;;;;;;5075771;28;20475;-77
2022/12/02 03:48:29;;;;;;;71.93;36.17;;;3.00;99.90;;;;;;5075433;28;20453;-77
2022/12/02 03:50:57;;;;;;;78.53;37.20;;;3.00;99.90;;;;;;5074261;28;20461;-77
2022/12/02 03:53:27;;;;;;;62.40;33.90;;;3.00;99.90;;;;;;5074155;28;20472;-77
2022/12/02 03:55:56;;;;;;;71.40;36.30;;;3.00;99.90;;;;;;5075367;28;20937;-77
2022/12/02 03:58:35;;;;;;;70.07;35.77;;;3.00;99.90;;;;;;5074285;28;20444;-78
2022/12/02 04:01:03;;;;;;;70.97;35.77;;;3.00;99.90;;;;;;5074094;28;20463;-78
2022/12/02 04:03:31;;;;;;;65.13;34.43;;;3.00;99.90;;;;;;5071029;28;20549;-77
2022/12/02 04:05:59;;;;;;;60.97;33.80;;;3.00;99.90;;;;;;5073780;28;20501;-77
2022/12/02 04:08:28;;;;;;;59.17;32.20;;;3.00;99.90;;;;;;5075388;28;20937;-77
2022/12/02 04:10:56;;;;;;;69.90;34.60;;;3.00;99.90;;;;;;5073785;28;20475;-78
2022/12/02 04:13:24;;;;;;;62.10;32.37;;;3.00;99.90;;;;;;5073675;28;20509;-77
2022/12/02 04:15:54;;;;;;;71.67;34.90;;;2.90;99.90;;;;;;5073696;28;20445;-78
2022/12/02 04:18:22;;;;;;;68.73;33.80;;;3.00;99.90;;;;;;5073647;28;20881;-77
2022/12/02 04:20:50;;;;;;;66.70;35.00;;;3.00;99.90;;;;;;5073570;28;20491;-77
2022/12/02 04:23:19;;;;;;;64.83;35.47;;;2.90;99.90;;;;;;5073445;28;20482;-78
2022/12/02 04:25:47;;;;;;;58.80;32.90;;;2.90;99.90;;;;;;5073446;28;20463;-77
2022/12/02 04:28:15;;;;;;;66.57;35.60;;;2.90;99.90;;;;;;5073484;28;20445;-77
2022/12/02 04:30:43;;;;;;;58.33;31.23;;;2.90;99.90;;;;;;5074641;28;20444;-77
2022/12/02 04:33:12;;;;;;;57.13;29.47;;;2.90;99.90;;;;;;5073263;28;20472;-77
2022/12/02 04:35:40;;;;;;;55.87;29.03;;;2.90;99.90;;;;;;5074756;28;20493;-77
2022/12/02 04:38:09;;;;;;;59.50;29.47;;;2.90;99.90;;;;;;5074529;28;20772;-77
2022/12/02 04:40:39;;;;;;;47.57;26.87;;;2.90;99.90;;;;;;5075079;28;20460;-77
2022/12/02 04:43:07;;;;;;;61.33;29.20;;;2.90;99.90;;;;;;5072998;28;20835;-77
2022/12/02 04:45:36;;;;;;;59.60;29.60;;;2.90;99.90;;;;;;5074535;28;20475;-78
2022/12/02 04:48:04;;;;;;;51.13;28.13;;;2.80;99.90;;;;;;5074594;28;20435;-77
2022/12/02 04:50:33;;;;;;;55.00;27.53;;;2.80;99.90;;;;;;5074924;28;20445;-77
2022/12/02 04:53:01;;;;;;;51.50;28.47;;;2.80;99.90;;;;;;5071774;28;20452;-78
2022/12/02 04:55:30;;;;;;;50.13;28.27;;;2.80;99.90;;;;;;5072934;28;20453;-77
2022/12/02 04:57:58;;;;;;;45.10;26.10;;;2.80;99.90;;;;;;5072944;28;20452;-78
2022/12/02 05:00:26;;;;;;;49.37;26.60;;;2.80;99.90;;;;;;5073117;28;20455;-78
2022/12/02 05:02:55;;;;;;;51.07;28.07;;;2.80;99.90;;;;;;5074018;28;21025;-77
2022/12/02 05:05:24;;;;;;;55.53;29.20;;;2.80;99.90;;;;;;5072619;28;20580;-77
2022/12/02 05:07:53;;;;;;;58.53;30.57;;;2.70;99.90;;;;;;5073930;28;20433;-77
2022/12/02 05:10:21;;;;;;;61.17;32.03;;;2.70;99.90;;;;;;5072541;28;20533;-77
2022/12/02 05:12:49;;;;;;;55.40;27.90;;;2.70;99.90;;;;;;5073737;28;20436;-77
2022/12/02 05:15:18;;;;;;;69.63;32.77;;;2.60;99.90;;;;;;5075824;28;20485;-77
2022/12/02 05:17:46;;;;;;;56.53;30.17;;;2.60;99.90;;;;;;5075453;28;20528;-77
2022/12/02 05:20:15;;;;;;;55.97;31.07;;;2.50;99.90;;;;;;5073646;28;20896;-77
2022/12/02 05:22:43;;;;;;;55.37;31.07;;;2.50;99.90;;;;;;5072626;28;20465;-78
2022/12/02 05:25:14;;;;;;;59.93;32.83;;;2.40;99.90;;;;;;5072522;28;20479;-78
2022/12/02 05:27:42;;;;;;;56.57;29.57;;;2.40;99.90;;;;;;5072436;28;20537;-78
2022/12/02 05:30:12;;;;;;;59.20;32.73;;;2.40;99.90;;;;;;5074163;28;20438;-78
2022/12/02 05:32:40;;;;;;;57.67;29.80;;;2.40;99.90;;;;;;5073514;28;20446;-78
2022/12/02 05:35:08;;;;;;;54.70;28.50;;;2.50;99.90;;;;;;5072493;28;20884;-78
2022/12/02 05:37:36;;;;;;;57.43;32.47;;;2.30;99.90;;;;;;5072313;28;20449;-78
2022/12/02 05:40:06;;;;;;;50.67;33.10;;;2.30;99.90;;;;;;5078677;28;20774;-77
2022/12/02 05:42:36;;;;;;;61.20;35.47;;;2.30;99.90;;;;;;5075799;28;20533;-78
2022/12/02 05:45:14;;;;;;;51.80;31.90;;;2.30;99.90;;;;;;5074952;28;20455;-78
2022/12/02 05:47:44;;;;;;;59.73;35.50;;;2.20;99.90;;;;;;5074626;28;20800;-77
2022/12/02 05:50:13;;;;;;;54.77;29.93;;;2.20;99.90;;;;;;5074611;28;20448;-77
2022/12/02 05:52:43;;;;;;;49.80;30.63;;;2.20;99.90;;;;;;5072670;28;20450;-78
2022/12/02 05:55:14;;;;;;;59.00;34.87;;;2.20;99.90;;;;;;5072745;28;20468;-78
2022/12/02 05:57:45;;;;;;;65.10;36.43;;;2.20;99.90;;;;;;5074190;28;20427;-78
2022/12/02 06:00:16;;;;;;;59.90;35.60;;;2.10;99.90;;;;;;5072554;28;20549;-77
2022/12/02 06:02:47;;;;;;;57.00;32.47;;;2.10;99.90;;;;;;5073909;28;20429;-77
2022/12/02 06:05:21;;;;;;;56.27;33.53;;;2.10;99.90;;;;;;5073406;28;20451;-77
2022/12/02 06:07:55;;;;;;;59.97;30.70;;;2.10;99.90;;;;;;5072004;28;20830;-77
2022/12/02 06:10:26;;;;;;;52.23;32.83;;;2.10;99.90;;;;;;5073887;28;20418;-77
2022/12/02 06:12:59;;;;;;;57.97;33.43;;;2.00;99.90;;;;;;5073616;28;20424;-77
2022/12/02 06:15:32;;;;;;;52.70;29.50;;;2.00;99.90;;;;;;5074817;28;20445;-78
2022/12/02 06:18:00;;;;;;;54.27;33.07;;;2.00;99.90;;;;;;5072634;28;20512;-78
2022/12/02 06:20:33;;;;;;;58.10;29.60;;;2.00;99.90;;;;;;5073522;28;20431;-78
2022/12/02 06:23:02;;;;;;;59.10;32.63;;;2.00;99.90;;;;;;5072014;28;20446;-78
2022/12/02 06:25:32;;;;;;;59.97;31.97;;;2.00;99.90;;;;;;5072111;28;20444;-78
2022/12/02 06:28:11;;;;;;;62.50;34.20;;;2.00;99.90;;;;;;5076343;28;21002;-78
2022/12/02 06:30:40;;;;;;;57.13;33.83;;;2.00;99.90;;;;;;5073769;28;20447;-78
2022/12/02 06:33:21;;;;;;;56.43;34.50;;;2.00;99.90;;;;;;5072588;28;20465;-79
2022/12/02 06:35:50;;;;;;;60.90;35.27;;;2.00;99.90;;;;;;5074973;28;20459;-79
2022/12/02 06:38:26;;;;;;;54.90;34.83;;;2.00;99.90;;;;;;5072811;28;20485;-79
2022/12/02 06:40:54;;;;;;;55.97;34.10;;;2.00;99.90;;;;;;5072245;28;20501;-79
2022/12/02 06:43:26;;;;;;;57.73;33.37;;;2.00;99.90;;;;;;5072761;28;20848;-79
2022/12/02 06:45:55;;;;;;;56.23;35.73;;;2.00;99.90;;;;;;5073616;28;20433;-78
2022/12/02 06:48:28;;;;;;;58.50;32.67;;;2.00;99.90;;;;;;5071686;28;20499;-78
2022/12/02 06:51:00;;;;;;;55.53;31.93;;;2.00;99.90;;;;;;5072343;28;20441;-78
2022/12/02 06:53:36;;;;;;;57.23;32.70;;;2.00;99.90;;;;;;5072049;28;21024;-78
2022/12/02 06:56:19;;;;;;;62.13;34.73;;;2.00;99.90;;;;;;5071504;28;20456;-78
2022/12/02 06:58:55;;;;;;;60.37;33.70;;;2.00;99.90;;;;;;5072789;28;20428;-78
2022/12/02 07:01:29;;;;;;;62.43;36.00;;;2.00;99.90;;;;;;5071515;28;20452;-78
2022/12/02 07:04:14;;;;;;;57.00;34.10;;;2.00;99.90;;;;;;5072806;28;20494;-78
2022/12/02 07:06:44;;;;;;;58.57;34.40;;;2.00;99.90;;;;;;5072588;28;20969;-78
2022/12/02 07:09:16;;;;;;;55.13;34.10;;;2.00;99.90;;;;;;5073023;28;20437;-78
2022/12/02 07:11:52;;;;;;;64.87;39.60;;;2.00;99.90;;;;;;5073187;28;20477;-78
2022/12/02 07:14:37;;;;;;;64.90;37.83;;;2.00;99.90;;;;;;5072998;28;20552;-78
2022/12/02 07:17:21;;;;;;;58.07;34.90;;;2.00;99.90;;;;;;5074949;28;20459;-78
2022/12/02 07:19:53;;;;;;;72.30;43.50;;;2.00;99.90;;;;;;5075239;28;20974;-79
2022/12/02 07:22:24;;;;;;;69.87;42.17;;;2.00;99.90;;;;;;5071997;28;20442;-79
2022/12/02 07:24:55;;;;;;;68.87;43.77;;;2.00;99.90;;;;;;5074560;28;20466;-79
2022/12/02 07:27:26;;;;;;;68.57;44.80;;;2.00;99.90;;;;;;5074971;28;20466;-79
2022/12/02 07:29:56;;;;;;;71.77;38.30;;;2.00;99.90;;;;;;5075063;28;20526;-78
2022/12/02 07:32:24;;;;;;;73.57;45.77;;;2.10;99.90;;;;;;5076129;28;20449;-78
2022/12/02 07:34:53;;;;;;;64.80;41.30;;;2.10;99.90;;;;;;5074710;28;20815;-78
2022/12/02 07:37:21;;;;;;;72.90;43.73;;;2.10;99.90;;;;;;5074423;28;20814;-78
2022/12/02 07:39:50;;;;;;;66.20;41.10;;;2.10;99.90;;;;;;5074417;28;21034;-78
2022/12/02 07:42:18;;;;;;;71.43;40.83;;;2.10;99.90;;;;;;5074585;28;20452;-78
2022/12/02 07:44:46;;;;;;;75.30;43.60;;;2.10;99.90;;;;;;5075609;28;20461;-78
2022/12/02 07:47:16;;;;;;;69.30;41.87;;;2.10;99.90;;;;;;5074178;28;20528;-78
2022/12/02 07:49:44;;;;;;;69.50;42.67;;;2.00;99.90;;;;;;5074418;28;20438;-78
2022/12/02 07:52:12;;;;;;;68.10;43.60;;;2.10;99.90;;;;;;5074530;28;20456;-78
2022/12/02 07:54:40;;;;;;;68.03;43.50;;;2.10;99.90;;;;;;5074177;28;20468;-78
2022/12/02 07:57:08;;;;;;;75.23;46.53;;;2.10;99.90;;;;;;5075626;28;20438;-78
2022/12/02 07:59:36;;;;;;;68.13;43.33;;;2.10;99.90;;;;;;5075556;28;20543;-78
2022/12/02 08:02:04;;;;;;;71.40;39.63;;;2.10;99.90;;;;;;5075352;28;20453;-78
2022/12/02 08:04:34;;;;;;;70.33;43.83;;;2.10;99.90;;;;;;5074070;28;20830;-78
2022/12/02 08:07:02;;;;;;;75.93;45.03;;;2.20;99.90;;;;;;5075059;28;20519;-78
2022/12/02 08:09:30;;;;;;;72.07;44.13;;;2.20;99.90;;;;;;5075151;28;20431;-78
2022/12/02 08:11:58;;;;;;;69.40;42.20;;;2.20;99.90;;;;;;5075372;28;20437;-78
2022/12/02 08:14:26;;;;;;;72.67;46.07;;;2.20;99.90;;;;;;5070598;28;20472;-78
2022/12/02 08:16:54;;;;;;;69.93;43.43;;;2.20;99.90;;;;;;5073909;28;20443;-78
2022/12/02 08:19:22;;;;;;;64.73;42.90;;;2.20;99.90;;;;;;5073675;28;20537;-78
2022/12/02 08:21:52;;;;;;;70.83;44.70;;;2.20;99.90;;;;;;5075142;28;20457;-78
2022/12/02 08:24:20;;;;;;;73.77;44.80;;;2.20;99.90;;;;;;5073954;28;20469;-78
2022/12/02 08:26:48;;;;;;;73.70;45.47;;;2.20;99.90;;;;;;5072658;28;20451;-78
2022/12/02 08:29:16;;;;;;;71.17;45.23;;;2.20;99.90;;;;;;5073381;28;20450;-78
2022/12/02 08:31:44;;;;;;;69.13;45.53;;;2.20;99.90;;;;;;5074590;28;20861;-78
2022/12/02 08:34:12;;;;;;;69.00;46.20;;;2.20;99.90;;;;;;5073237;28;20476;-78
2022/12/02 08:36:40;;;;;;;74.53;44.63;;;2.20;99.90;;;;;;5074605;28;20438;-78
2022/12/02 08:39:10;;;;;;;69.87;42.60;;;2.20;99.90;;;;;;5074851;28;20427;-78
2022/12/02 08:41:38;;;;;;;64.37;43.70;;;2.20;99.90;;;;;;5074822;28;20453;-78
2022/12/02 08:44:06;;;;;;;68.60;45.20;;;2.20;99.90;;;;;;5073125;28;20467;-78
2022/12/02 08:46:35;;;;;;;68.87;46.40;;;2.30;99.90;;;;;;5074527;28;20452;-78
2022/12/02 08:49:05;;;;;;;71.13;47.47;;;2.30;99.90;;;;;;5074464;28;20997;-78
2022/12/02 08:51:33;;;;;;;65.70;42.80;;;2.30;99.90;;;;;;5074563;28;20490;-78
2022/12/02 08:54:02;;;;;;;62.80;42.20;;;2.30;99.90;;;;;;5072905;28;20895;-78
2022/12/02 08:56:31;;;;;;;66.53;43.17;;;2.30;99.90;;;;;;5072965;28;20514;-78
2022/12/02 08:58:59;;;;;;;66.10;44.30;;;2.30;99.90;;;;;;5072900;28;20483;-78
2022/12/02 09:01:27;;;;;;;66.93;43.63;;;2.30;99.90;;;;;;5074208;28;20432;-77
2022/12/02 09:03:55;;;;;;;65.50;44.43;;;2.30;99.90;;;;;;5073133;28;20482;-78
2022/12/02 09:06:23;;;;;;;65.30;43.47;;;2.30;99.90;;;;;;5076822;28;20439;-78
2022/12/02 09:08:52;;;;;;;62.30;42.03;;;2.30;99.90;;;;;;5074435;28;20468;-78
2022/12/02 09:11:20;;;;;;;64.90;44.93;;;2.40;99.90;;;;;;5073158;28;20475;-78
2022/12/02 09:13:50;;;;;;;63.77;41.87;;;2.30;99.90;;;;;;5072817;28;20477;-78
2022/12/02 09:16:18;;;;;;;61.30;42.57;;;2.30;99.90;;;;;;5074035;28;20942;-78
2022/12/02 09:18:47;;;;;;;62.03;42.97;;;2.30;99.90;;;;;;5072654;28;20887;-78
2022/12/02 09:21:15;;;;;;;64.90;45.73;;;2.40;99.90;;;;;;5072675;28;20854;-78
2022/12/02 09:23:43;;;;;;;64.30;44.73;;;2.40;99.90;;;;;;5073921;28;20461;-78
2022/12/02 09:26:17;;;;;;;67.47;46.27;;;2.40;99.90;;;;;;5073910;28;20785;-77
2022/12/02 09:28:46;;;;;;;59.60;42.20;;;2.40;99.90;;;;;;5073715;28;20475;-77
2022/12/02 09:31:15;;;;;;;61.93;44.07;;;2.40;99.90;;;;;;5072483;28;20816;-77
2022/12/02 09:33:44;;;;;;;65.30;44.30;;;2.40;99.90;;;;;;5072416;28;20484;-77
2022/12/02 09:36:12;;;;;;;62.70;42.30;;;2.40;99.90;;;;;;5072629;28;20446;-77
2022/12/02 09:38:40;;;;;;;63.30;44.00;;;2.40;99.90;;;;;;5072770;28;20509;-77
2022/12/02 09:41:09;;;;;;;60.00;44.63;;;2.40;99.90;;;;;;5072312;28;20446;-77
2022/12/02 09:43:37;;;;;;;61.93;42.30;;;2.40;99.90;;;;;;5072189;28;20483;-77
2022/12/02 09:46:05;;;;;;;61.90;43.93;;;2.50;99.90;;;;;;5072171;28;20442;-77
2022/12/02 09:48:36;;;;;;;47.63;33.77;;;2.50;99.90;;;;;;5072035;28;20475;-78
2022/12/02 09:51:04;;;;;;;60.07;43.10;;;2.50;99.90;;;;;;5072082;28;20457;-78
2022/12/02 09:53:37;;;;;;;64.30;46.90;;;2.50;99.90;;;;;;5071005;28;20880;-77
2022/12/02 09:56:09;;;;;;;57.23;41.17;;;2.50;99.90;;;;;;5073941;28;20422;-77
2022/12/02 09:58:38;;;;;;;56.70;43.93;;;2.50;99.90;;;;;;5072140;28;20452;-78
2022/12/02 10:01:10;;;;;;;61.33;43.27;;;2.50;99.90;;;;;;5073888;28;20862;-78
2022/12/02 10:03:41;;;;;;;59.43;43.83;;;2.50;99.90;;;;;;5072100;28;20475;-77
2022/12/02 10:06:15;;;;;;;59.10;43.90;;;2.50;99.90;;;;;;5073564;28;20413;-77
2022/12/02 10:08:44;;;;;;;68.73;48.80;;;2.50;99.90;;;;;;5071859;28;20548;-77
2022/12/02 10:11:21;;;;;;;63.90;47.50;;;2.50;99.90;;;;;;5073530;28;20441;-78
2022/12/02 10:13:50;;;;;;;66.30;44.13;;;2.50;99.90;;;;;;5073548;28;20463;-78
2022/12/02 10:16:18;;;;;;;57.67;42.57;;;2.60;99.90;;;;;;5071979;28;20441;-78
2022/12/02 10:18:48;;;;;;;57.27;39.90;;;2.60;99.90;;;;;;5073119;28;20434;-78
2022/12/02 10:21:17;;;;;;;58.60;42.03;;;2.50;99.90;;;;;;5072609;28;20926;-77
2022/12/02 10:23:57;;;;;;;56.07;41.13;;;2.60;99.90;;;;;;5073314;28;20487;-78
2022/12/02 10:26:26;;;;;;;58.87;44.00;;;2.60;99.90;;;;;;5073102;28;20493;-78
2022/12/02 10:29:03;;;;;;;53.73;42.20;;;2.60;99.90;;;;;;5071690;28;20808;-78
2022/12/02 10:31:32;;;;;;;58.07;42.63;;;2.60;99.90;;;;;;5073183;28;20528;-78
2022/12/02 10:34:03;;;;;;;57.50;41.77;;;2.60;99.90;;;;;;5071652;28;20465;-77
2022/12/02 10:36:33;;;;;;;40.80;32.00;;;2.60;99.90;;;;;;5073470;28;20418;-77
2022/12/02 10:39:22;;;;;;;52.40;40.40;;;2.60;99.90;;;;;;5072027;28;20445;-78
2022/12/02 10:42:07;;;;;;;54.27;40.87;;;2.70;99.90;;;;;;5071704;28;20461;-78
2022/12/02 10:44:37;;;;;;;50.53;39.00;;;2.70;99.90;;;;;;5068164;28;20590;-78
2022/12/02 10:47:15;;;;;;;53.77;41.10;;;2.70;99.90;;;;;;5072892;28;20429;-78
2022/12/02 10:49:55;;;;;;;47.90;38.20;;;2.70;99.90;;;;;;5073979;28;20449;-78
2022/12/02 10:52:28;;;;;;;49.47;37.83;;;2.70;99.90;;;;;;5075370;28;20458;-78
2022/12/02 10:54:58;;;;;;;52.50;37.80;;;2.70;99.90;;;;;;5076546;28;20831;-78
2022/12/02 10:57:28;;;;;;;48.17;37.93;;;2.70;99.90;;;;;;5076920;28;20420;-77
2022/12/02 10:59:59;;;;;;;53.07;40.97;;;2.80;99.90;;;;;;5075478;28;20447;-78
2022/12/02 11:02:31;;;;;;;52.60;39.17;;;2.80;99.90;;;;;;5075419;28;20466;-78
2022/12/02 11:05:12;;;;;;;48.20;37.67;;;2.80;99.90;;;;;;5076350;28;20499;-78
2022/12/02 11:07:40;;;;;;;43.40;35.13;;;2.80;99.90;;;;;;5075074;28;20500;-78
2022/12/02 11:10:20;;;;;;;47.97;36.27;;;2.80;99.90;;;;;;5076309;28;20470;-78
2022/12/02 11:13:00;;;;;;;43.53;35.20;;;2.80;99.90;;;;;;5075063;28;20428;-78
2022/12/02 11:15:47;;;;;;;47.43;35.33;;;2.90;99.90;;;;;;5074926;28;20443;-77
2022/12/02 11:18:48;;;;;;;43.37;34.27;;;2.90;99.90;;;;;;5076417;28;20783;-77
2022/12/02 11:21:37;;;;;;;44.33;34.30;;;2.90;99.90;;;;;;5076382;28;20767;-77
2022/12/02 11:24:37;;;;;;;43.80;35.70;;;2.90;99.90;;;;;;5074876;28;20470;-77
2022/12/02 11:27:10;;;;;;;44.63;35.63;;;2.90;99.90;;;;;;5074793;28;20477;-77
2022/12/02 11:30:18;;;;;;;40.93;32.67;;;2.90;99.90;;;;;;5074804;28;20476;-77
2022/12/02 11:32:50;;;;;;;41.10;32.33;;;2.90;99.90;;;;;;5071544;28;20503;-77
2022/12/02 11:35:38;;;;;;;39.97;32.50;;;2.90;99.90;;;;;;5075702;28;20472;-77
2022/12/02 11:38:24;;;;;;;42.80;32.33;;;2.90;99.90;;;;;;5074449;28;20960;-77
2022/12/02 11:41:01;;;;;;;42.47;32.87;;;2.90;99.90;;;;;;5074658;28;20456;-78
2022/12/02 11:44:16;;;;;;;43.83;33.73;;;2.90;99.90;;;;;;5076791;28;20478;-78
2022/12/02 11:46:48;;;;;;;44.57;33.57;;;2.90;99.90;;;;;;5048503;28;20437;-78
2022/12/02 11:49:32;;;;;;;41.47;33.70;;;2.90;99.90;;;;;;5074371;28;20465;-77
2022/12/02 11:52:03;;;;;;;44.20;33.90;;;2.90;99.90;;;;;;5075639;28;20456;-78
2022/12/02 11:54:39;;;;;;;46.40;35.10;;;2.90;99.90;;;;;;5074202;28;20482;-78
2022/12/02 11:57:15;;;;;;;43.97;34.93;;;3.00;99.90;;;;;;5074219;28;20453;-77
2022/12/02 11:59:43;;;;;;;48.57;36.27;;;3.00;99.90;;;;;;5074207;28;20441;-78
2022/12/02 12:02:14;;;;;;;46.57;34.93;;;3.00;99.90;;;;;;5074556;28;20441;-78
2022/12/02 12:04:43;;;;;;;50.20;37.87;;;3.00;99.90;;;;;;5075578;28;20494;-78
2022/12/02 12:07:12;;;;;;;50.40;37.33;;;3.10;99.90;;;;;;5075532;28;20445;-78
2022/12/02 12:09:41;;;;;;;47.93;36.50;;;3.00;99.90;;;;;;5073898;28;20465;-78
2022/12/02 12:12:15;;;;;;;48.17;38.27;;;3.10;99.90;;;;;;5073911;28;20540;-77
2022/12/02 12:15:01;;;;;;;46.47;36.30;;;3.10;99.90;;;;;;5074924;28;21114;-78
2022/12/02 12:17:46;;;;;;;51.40;37.67;;;3.10;99.90;;;;;;5075997;28;20474;-77
2022/12/02 12:20:45;;;;;;;53.97;39.50;;;3.10;99.90;;;;;;5075431;28;20952;-78
2022/12/02 12:23:31;;;;;;;56.90;39.57;;;3.10;99.90;;;;;;5072777;28;21011;-78
2022/12/02 12:26:05;;;;;;;52.07;38.00;;;3.10;99.90;;;;;;5074812;28;20430;-78
2022/12/02 12:28:37;;;;;;;54.27;36.70;;;3.10;99.90;;;;;;5073553;28;20951;-77
2022/12/02 12:31:06;;;;;;;52.43;38.27;;;3.10;99.90;;;;;;5073245;28;20479;-78
2022/12/02 12:33:35;;;;;;;51.57;37.20;;;3.20;99.90;;;;;;5074872;28;20985;-78
2022/12/02 12:36:07;;;;;;;47.27;35.77;;;3.20;99.90;;;;;;5073460;28;20973;-78
2022/12/02 12:38:35;;;;;;;46.80;36.07;;;3.20;99.90;;;;;;5073625;28;20465;-78
2022/12/02 12:41:08;;;;;;;43.33;34.20;;;3.20;99.90;;;;;;5077670;28;20445;-78
2022/12/02 12:44:04;;;;;;;47.43;34.87;;;3.20;99.90;;;;;;5075076;28;20477;-78
2022/12/02 12:46:32;;;;;;;46.83;35.70;;;3.20;99.90;;;;;;5075371;28;20496;-78
2022/12/02 12:49:00;;;;;;;46.43;36.67;;;3.20;99.90;;;;;;5074333;28;20446;-78
2022/12/02 12:51:29;;;;;;;46.57;35.83;;;3.20;99.90;;;;;;5073404;28;20499;-78
2022/12/02 12:53:57;;;;;;;51.23;37.90;;;3.20;99.90;;;;;;5074482;28;20530;-78
2022/12/02 12:56:26;;;;;;;48.23;36.37;;;3.20;99.90;;;;;;5073016;28;20876;-78
2022/12/02 12:58:54;;;;;;;48.40;36.40;;;3.30;99.90;;;;;;5073033;28;20452;-77
2022/12/02 13:01:22;;;;;;;46.70;36.20;;;3.20;99.90;;;;;;5073254;28;20505;-78